Date,TemperatureHighF,TemperatureAvgF,TemperatureLowF,DewpointHighF,DewpointAvgF,DewpointLowF,HumidityHigh,HumidityAvg,HumidityLow,PressureMaxIn,PressureMinIn,WindSpeedMaxMPH,WindSpeedAvgMPH,GustSpeedMaxMPH,PrecipitationSumIn
2013-1-1,45.9,42.9,39.4,40.0,37.5,30.0,94,82,55,30.02,29.88,6,1,9,0.07
2013-1-2,41.5,37.4,32.0,37.0,31.6,26.0,95,80,61,30.21,29.98,8,2,12,0.01
2013-1-3,38.2,31.7,24.4,28.0,24.9,22.0,93,77,56,30.24,30.15,5,0,7,0.12
2013-1-4,46.2,32.3,21.9,30.0,24.7,20.0,95,77,41,30.23,30.10,11,1,14,0.01
2013-1-5,47.4,35.2,25.8,34.0,27.0,23.0,92,74,42,30.37,30.18,6,1,13,0.00
2013-1-6,51.6,41.3,33.2,38.0,34.4,30.0,93,78,50,30.23,30.03,7,2,9,0.02
2013-1-7,48.3,38.2,28.2,34.0,30.2,26.0,95,76,47,30.44,30.12,16,2,20,0.00
2013-1-8,52.9,39.6,25.5,40.0,32.8,24.0,95,79,50,30.46,30.37,6,1,11,0.00
2013-1-9,63.4,48.8,33.3,53.0,43.3,32.0,96,83,63,30.39,30.25,7,1,12,0.00
2013-1-10,54.7,44.0,33.5,43.0,33.8,27.0,95,71,35,30.56,30.36,9,2,14,0.00
2013-1-11,51.2,43.9,31.6,50.0,41.7,30.0,96,92,82,30.50,30.08,4,1,8,0.00
2013-1-12,51.4,48.9,45.4,50.0,47.8,45.0,97,96,93,30.16,30.08,4,1,8,0.00
2013-1-13,60.5,51.2,45.2,59.0,50.4,44.0,97,97,95,30.13,30.00,8,2,9,0.01
2013-1-14,63.6,57.4,46.1,61.0,55.1,43.0,96,91,87,30.22,30.00,14,4,14,0.85
2013-1-15,46.1,42.7,40.7,43.0,41.4,40.0,96,95,89,30.29,30.09,11,3,15,0.66
2013-1-16,46.5,41.7,38.0,45.0,40.5,37.0,96,95,94,30.10,29.88,11,3,12,0.33
2013-1-17,45.0,40.9,33.5,44.0,39.8,33.0,97,95,89,30.11,29.96,10,2,12,0.35
2013-1-18,39.0,34.0,26.2,33.0,28.4,19.0,97,81,45,30.52,30.04,10,3,17,0.32
2013-1-19,52.6,39.6,25.9,34.0,29.5,24.0,95,70,41,30.47,30.06,11,4,14,0.48
2013-1-20,59.6,47.7,33.5,39.0,33.1,30.0,87,59,38,30.05,29.85,16,4,18,0.00
2013-1-21,49.9,38.3,26.0,38.0,29.6,22.0,93,73,52,30.09,29.77,12,3,23,0.00
2013-1-22,35.0,27.5,20.8,23.0,7.5,-3.0,66,44,25,30.28,29.90,16,5,24,0.00
2013-1-23,30.3,22.8,11.9,15.0,7.1,2.0,86,53,31,30.36,30.12,10,2,16,0.00
2013-1-24,28.0,24.9,16.3,24.0,15.4,4.0,92,69,38,30.51,30.00,19,6,28,0.00
2013-1-25,27.9,24.6,15.3,23.0,16.8,7.0,91,75,43,30.47,30.07,8,2,17,0.00
2013-1-26,38.5,29.3,20.0,26.0,22.7,18.0,92,77,53,30.41,30.07,9,2,14,0.05
2013-1-27,38.3,30.8,26.2,25.0,23.2,21.0,90,75,52,30.60,30.42,8,1,14,0.00
2013-1-28,49.9,39.8,28.0,44.0,34.4,26.0,93,81,71,30.51,30.09,9,4,15,0.11
2013-1-29,68.9,54.5,45.1,54.0,47.8,42.0,94,79,58,30.13,30.02,7,2,9,0.00
2013-1-30,74.3,64.8,47.4,62.0,58.0,45.0,95,79,64,30.02,29.35,24,8,28,0.00
2013-1-31,68.9,47.6,36.9,62.0,27.9,18.0,88,48,32,29.95,29.18,18,7,36,0.36
2013-2-1,39.8,32.0,23.2,28.0,15.7,5.0,81,52,32,30.37,29.77,20,6,30,0.00
2013-2-2,35.9,31.4,19.4,23.0,13.9,8.0,74,50,34,30.38,29.99,12,3,14,0.00
2013-2-3,38.3,33.7,27.1,30.0,26.7,23.0,92,76,58,29.99,29.82,7,2,14,0.00
2013-2-4,42.0,34.8,28.4,27.0,21.0,14.0,80,58,46,30.12,29.92,10,2,15,0.00
2013-2-5,52.9,44.6,35.0,37.0,32.2,27.0,90,63,51,29.92,29.82,9,2,16,0.00
2013-2-6,50.0,37.3,28.4,36.0,30.9,26.0,95,79,54,30.34,29.91,8,1,14,0.00
2013-2-7,43.4,36.4,26.4,39.0,30.6,25.0,93,80,61,30.42,30.14,10,1,13,0.03
2013-2-8,46.1,42.2,40.0,43.0,39.0,27.0,95,89,59,30.14,29.66,18,6,26,1.22
2013-2-9,43.3,36.2,26.5,27.0,23.0,21.0,85,60,44,30.37,29.89,23,8,32,0.00
2013-2-10,44.9,33.4,20.4,36.0,23.8,5.0,93,71,22,30.49,30.28,7,1,11,0.00
2013-2-11,61.3,54.3,42.3,57.0,50.2,36.0,94,86,74,30.27,29.77,14,5,18,0.01
2013-2-12,56.7,48.8,40.0,48.0,36.4,27.0,91,65,34,29.99,29.79,12,1,17,0.00
2013-2-13,46.8,43.4,40.1,44.0,40.5,38.0,95,89,81,29.93,29.59,9,2,11,0.11
2013-2-14,50.2,40.0,31.9,37.0,33.4,30.0,94,79,50,30.05,29.73,8,2,14,0.00
2013-2-15,60.2,44.3,28.8,40.0,34.5,28.0,96,72,39,30.05,29.90,10,3,15,0.00
2013-2-16,42.8,37.6,34.0,36.0,33.9,26.0,93,86,72,29.99,29.78,12,5,17,0.14
2013-2-17,33.9,30.8,26.8,26.0,14.1,6.0,74,51,33,30.21,29.78,24,8,26,0.00
2013-2-18,43.9,31.0,18.3,26.0,14.3,8.0,82,53,26,30.39,30.21,11,3,14,0.00
2013-2-19,52.9,45.0,35.7,49.0,37.2,22.0,94,75,51,30.22,29.76,11,4,19,0.02
2013-2-20,45.1,37.5,29.6,39.0,24.4,16.0,93,62,36,30.13,29.84,12,3,18,0.00
2013-2-21,41.2,33.0,24.4,22.0,17.3,14.0,71,53,41,30.29,30.12,15,5,23,0.00
2013-2-22,38.6,34.6,30.6,35.0,27.3,20.0,94,75,60,30.36,30.18,8,2,11,0.10
2013-2-23,43.7,41.1,36.7,43.0,40.1,35.0,97,96,94,30.18,29.79,7,3,12,0.21
2013-2-24,54.1,45.8,36.2,43.0,38.7,23.0,97,78,56,30.09,29.76,15,4,20,0.01
2013-2-25,44.2,35.5,27.2,31.0,25.3,21.0,93,68,47,30.21,30.09,12,2,12,0.00
2013-2-26,55.5,40.9,27.4,54.0,38.9,26.0,96,92,86,30.20,29.53,15,3,23,0.34
2013-2-27,58.3,49.5,36.4,52.0,44.4,35.0,97,84,54,29.69,29.50,13,2,17,0.12
2013-2-28,46.3,41.9,36.1,39.0,35.7,31.0,95,80,56,29.73,29.61,11,2,17,0.02
2013-3-1,46.8,42.5,39.8,33.0,29.9,27.0,74,62,46,29.86,29.73,14,4,20,0.01
2013-3-2,39.6,37.0,31.4,28.0,24.8,19.0,74,62,52,29.87,29.80,11,4,16,0.01
2013-3-3,41.9,35.1,30.2,26.0,21.5,19.0,71,58,43,29.90,29.77,13,5,23,0.25
2013-3-4,46.0,34.9,27.0,27.0,19.9,17.0,83,56,34,30.03,29.90,16,4,25,0.02
2013-3-5,47.9,36.9,25.7,35.0,25.9,20.0,92,67,36,30.08,29.76,9,2,13,0.20
2013-3-6,44.9,40.5,37.3,43.0,38.2,34.0,94,91,78,29.89,29.30,26,12,49,1.50
2013-3-7,49.9,43.7,39.0,35.0,29.8,27.0,82,59,43,30.11,29.89,23,10,28,0.39
2013-3-8,47.8,42.7,37.2,31.0,29.2,27.0,74,60,46,30.20,30.07,21,8,30,0.06
2013-3-9,58.5,44.6,31.5,34.0,27.6,19.0,89,56,22,30.30,30.19,12,4,15,0.01
2013-3-10,57.9,43.3,28.4,42.0,30.8,20.0,94,68,23,30.32,30.25,7,2,11,0.03
2013-3-11,63.9,50.0,34.1,52.0,44.3,33.0,97,82,65,30.27,29.99,13,4,18,0.00
2013-3-12,65.2,56.6,46.5,61.0,51.5,37.0,95,83,65,29.99,29.71,13,6,21,0.36
2013-3-13,52.2,43.3,30.3,37.0,31.9,21.0,94,66,41,30.04,29.89,14,4,26,0.00
2013-3-14,49.2,39.3,29.5,27.0,20.4,16.0,81,49,27,30.14,30.01,18,6,24,0.00
2013-3-15,58.1,41.9,23.7,36.0,27.1,20.0,93,61,26,30.11,29.80,9,2,21,0.00
2013-3-16,61.0,50.9,40.9,55.0,44.6,36.0,94,80,54,29.86,29.60,11,3,18,0.30
2013-3-17,43.8,38.9,36.1,40.0,36.5,34.0,95,91,85,30.26,29.87,13,2,14,0.25
2013-3-18,42.9,37.9,33.4,42.0,36.7,32.0,96,95,93,30.28,29.85,5,1,13,0.72
2013-3-19,60.9,47.0,38.3,43.0,35.3,13.0,96,71,22,29.92,29.72,12,4,19,0.02
2013-3-20,55.2,45.5,29.1,29.0,19.6,12.0,88,39,20,30.02,29.76,12,4,21,0.00
2013-3-21,43.0,36.8,32.0,30.0,21.0,12.0,73,54,37,29.91,29.70,19,8,23,0.00
2013-3-22,31.9,31.9,31.9,12.0,12.0,12.0,44,44,44,29.91,29.91,5,5,12,0.00
2013-3-24,42.3,36.4,29.9,33.0,29.8,25.0,95,79,52,29.98,29.61,8,2,14,0.03
2013-3-25,39.5,36.3,33.8,36.0,34.4,32.0,95,92,85,29.69,29.48,13,4,21,0.54
2013-3-26,48.0,41.0,34.4,36.0,32.7,28.0,95,74,47,29.98,29.69,14,4,18,0.00
2013-3-27,50.6,43.7,36.6,31.0,28.8,25.0,74,57,38,30.12,29.98,20,5,29,0.00
2013-3-28,51.0,44.2,34.8,32.0,29.0,26.0,80,56,43,30.21,30.09,17,5,28,0.00
2013-3-29,55.5,44.9,35.9,37.0,31.7,28.0,88,62,37,30.25,30.14,12,3,23,0.00
2013-3-30,60.3,45.6,29.8,39.0,30.9,26.0,95,63,28,30.21,30.11,11,2,19,0.00
2013-3-31,58.2,50.9,39.7,55.0,45.4,36.0,96,82,59,30.13,29.74,10,2,18,0.21
2013-4-1,69.2,55.1,40.8,51.0,42.1,31.0,97,66,36,29.96,29.70,18,4,31,0.00
2013-4-2,55.4,42.7,29.1,34.0,25.7,15.0,92,57,21,30.16,29.96,16,3,21,0.00
2013-4-3,55.6,41.5,27.0,35.0,23.4,15.0,93,56,22,30.35,30.16,14,3,20,0.00
2013-4-4,47.6,44.2,39.9,38.0,26.8,10.0,92,54,22,30.39,30.10,10,3,17,0.19
2013-4-5,63.0,47.7,39.1,44.0,38.1,30.0,95,75,29,30.05,29.82,13,5,18,0.46
2013-4-6,53.7,43.7,34.3,37.0,30.8,25.0,95,64,34,30.32,30.00,11,2,17,0.00
2013-4-7,69.5,54.1,36.0,46.0,41.0,34.0,95,65,39,30.32,30.02,11,4,22,0.01
2013-4-8,79.8,67.1,53.5,56.0,51.7,44.0,85,60,37,30.09,29.96,12,4,16,0.00
2013-4-9,85.2,72.0,63.1,60.0,56.1,53.0,80,59,34,30.08,29.95,10,3,13,0.00
2013-4-10,89.5,77.6,64.2,62.0,58.7,55.0,78,54,31,29.98,29.80,12,4,17,0.00
2013-4-11,85.7,74.9,64.0,63.0,60.3,58.0,83,62,42,29.88,29.74,16,4,18,0.00
2013-4-12,81.5,71.0,63.8,69.0,64.9,59.0,95,81,58,29.77,29.53,13,5,23,0.09
2013-4-13,65.0,58.0,48.9,63.0,47.2,42.0,94,69,49,29.93,29.62,16,4,27,0.01
2013-4-14,68.5,57.4,43.6,52.0,45.1,37.0,96,67,35,30.12,29.92,8,1,13,0.00
2013-4-15,61.6,58.4,55.8,53.0,50.1,41.0,85,74,58,30.27,30.10,14,3,14,0.00
2013-4-16,71.8,62.1,50.9,59.0,55.1,49.0,96,79,63,30.30,30.18,14,3,17,0.00
2013-4-17,78.6,67.6,58.7,64.0,60.0,56.0,92,78,58,30.20,30.11,9,3,15,0.00
2013-4-18,77.2,66.7,58.9,64.0,59.6,56.0,94,79,58,30.21,30.03,12,4,18,0.09
2013-4-19,82.8,71.1,61.9,67.0,63.6,59.0,93,79,54,30.03,29.66,23,6,29,0.37
2013-4-20,66.2,54.4,45.8,64.0,44.5,32.0,94,72,35,30.28,29.73,12,3,24,0.41
2013-4-21,54.5,46.3,38.1,44.0,35.1,28.0,95,69,39,30.56,30.29,11,2,21,0.00
2013-4-22,55.0,46.8,34.1,46.0,41.2,33.0,96,82,65,30.54,30.33,12,3,20,0.00
2013-4-23,59.9,51.3,42.8,49.0,46.1,41.0,94,83,65,30.33,30.11,12,5,19,0.00
2013-4-24,76.1,59.8,39.7,59.0,50.0,38.0,96,73,47,30.13,29.86,18,4,22,0.00
2013-4-25,68.0,56.4,42.8,57.0,40.0,27.0,90,56,28,30.28,29.93,16,5,26,0.00
2013-4-26,66.9,53.4,39.1,49.0,40.0,33.0,96,66,31,30.43,30.27,10,2,13,0.00
2013-4-27,68.1,56.5,42.9,48.0,42.2,35.0,95,64,30,30.41,30.29,8,1,16,0.00
2013-4-28,67.5,55.5,41.3,53.0,43.8,32.0,95,69,28,30.30,30.15,9,2,16,0.01
2013-4-29,58.8,57.1,54.5,57.0,55.7,53.0,97,95,93,30.15,30.00,7,2,17,1.26
2013-4-30,59.0,57.3,56.1,57.0,56.1,55.0,97,95,94,30.21,30.04,8,2,13,0.10
2013-5-1,67.1,59.1,54.2,55.0,50.2,43.0,94,75,46,30.38,30.21,9,3,14,0.00
2013-5-2,65.9,57.1,48.2,53.0,50.7,46.0,93,80,60,30.40,30.30,8,2,14,0.00
2013-5-3,62.5,54.1,45.3,51.0,45.8,40.0,97,76,45,30.34,30.26,12,2,21,0.00
2013-5-4,63.8,53.8,45.1,53.0,46.6,40.0,94,78,56,30.29,30.16,8,2,14,0.00
2013-5-5,62.5,54.6,47.3,53.0,48.8,43.0,93,81,66,30.19,30.12,11,3,16,0.00
2013-5-6,67.7,59.8,54.1,62.0,57.0,51.0,95,90,81,30.13,30.00,10,2,16,0.00
2013-5-7,68.9,63.3,58.5,64.0,60.4,57.0,96,90,77,30.00,29.86,11,3,16,0.87
2013-5-8,69.9,60.2,51.5,60.0,56.1,50.0,97,87,60,29.99,29.92,8,1,16,0.51
2013-5-9,76.8,64.2,55.8,65.0,58.4,54.0,97,83,53,30.00,29.91,9,1,13,0.30
2013-5-10,84.7,70.7,55.1,64.0,59.4,54.0,97,71,43,30.01,29.87,9,2,14,0.00
2013-5-11,81.7,73.4,66.4,67.0,63.9,61.0,90,73,52,29.89,29.71,14,3,22,0.00
2013-5-12,68.0,62.0,46.0,62.0,52.9,42.0,96,75,44,30.02,29.71,12,3,19,0.22
2013-5-13,61.6,51.6,39.0,46.0,37.5,30.0,95,64,31,30.14,30.00,12,3,18,0.00
2013-5-14,65.8,52.5,37.1,50.0,38.6,31.0,93,63,31,30.21,30.06,12,2,14,0.00
2013-5-15,85.4,71.3,58.8,64.0,54.8,45.0,69,57,47,30.07,29.72,12,4,19,0.00
2013-5-16,88.2,76.0,67.2,68.0,62.2,57.0,86,65,38,29.90,29.76,9,2,19,0.04
2013-5-17,80.9,70.4,62.0,64.0,56.3,44.0,96,66,30,30.13,29.90,9,2,11,0.00
2013-5-18,65.3,63.8,61.4,63.0,59.1,54.0,93,85,68,30.20,30.13,9,1,11,0.04
2013-5-19,78.1,70.3,64.5,70.0,65.9,63.0,96,86,71,30.17,30.07,11,2,13,0.00
2013-5-20,80.7,73.0,67.1,71.0,67.9,65.0,94,84,68,30.11,29.98,12,3,16,0.00
2013-5-21,82.3,74.5,69.2,71.0,68.8,67.0,93,83,67,30.01,29.89,7,3,13,0.00
2013-5-22,84.3,76.5,71.1,72.0,69.4,68.0,91,79,62,29.96,29.85,13,6,18,0.00
2013-5-23,77.8,72.6,67.8,72.0,68.3,66.0,94,86,74,29.92,29.75,14,5,20,0.23
2013-5-24,69.8,61.1,52.4,67.0,54.9,38.0,96,81,56,30.11,29.73,16,6,29,0.19
2013-5-25,66.9,55.0,46.0,46.0,38.9,35.0,83,57,34,30.18,30.07,17,7,23,0.00
2013-5-26,73.2,60.5,50.9,51.0,41.8,36.0,92,53,27,30.22,30.12,10,3,19,0.00
2013-5-27,75.9,62.6,45.1,59.0,51.6,43.0,96,71,37,30.26,30.16,6,1,14,0.00
2013-5-28,83.9,73.4,61.2,68.0,62.7,55.0,92,70,57,30.20,30.06,13,4,22,0.00
2013-5-29,88.2,78.6,69.9,70.0,66.3,64.0,82,67,50,30.14,30.06,12,4,16,0.00
2013-5-30,89.2,78.1,69.8,70.0,67.2,64.0,89,71,48,30.20,30.11,8,3,14,0.00
2013-5-31,89.2,78.3,65.4,71.0,68.1,63.0,92,73,49,30.17,30.04,11,2,18,0.00
2013-6-1,90.3,81.3,72.5,73.0,69.3,67.0,88,69,49,30.07,29.94,9,4,18,0.00
2013-6-2,88.1,78.9,70.0,72.0,68.2,66.0,91,71,54,29.96,29.85,13,5,28,0.02
2013-6-3,78.1,73.1,69.0,73.0,70.3,67.0,96,91,81,29.90,29.79,7,2,12,0.04
2013-6-4,77.2,68.9,56.0,69.0,56.8,47.0,96,69,35,30.11,29.91,10,3,16,0.10
2013-6-5,76.6,65.4,52.9,62.0,54.0,51.0,96,71,41,30.15,30.06,9,1,14,0.04
2013-6-6,75.2,67.4,55.8,67.0,61.7,53.0,96,82,67,30.07,29.86,18,3,18,0.02
2013-6-7,73.1,71.0,69.5,72.0,69.4,67.0,97,94,86,29.85,29.47,8,3,13,2.87
2013-6-8,78.0,69.4,63.7,71.0,66.6,62.0,97,91,66,30.07,29.69,12,1,21,0.62
2013-6-9,81.4,71.5,60.3,72.0,66.5,59.0,97,85,59,30.16,30.07,9,2,14,0.00
2013-6-10,82.9,75.9,73.1,75.0,72.9,72.0,96,90,74,30.08,29.84,12,5,19,0.10
2013-6-11,84.3,76.7,69.9,73.0,70.2,68.0,93,81,60,29.85,29.76,8,2,19,0.16
2013-6-12,89.9,78.0,64.7,77.0,70.1,63.0,96,78,54,29.87,29.76,6,1,13,0.00
2013-6-13,91.6,77.7,69.9,78.0,72.4,64.0,95,84,57,29.79,29.49,16,3,28,0.27
2013-6-14,76.0,68.0,60.5,64.0,59.2,55.0,93,74,51,29.94,29.58,16,6,23,0.00
2013-6-15,83.7,70.9,58.2,69.0,61.5,57.0,96,75,47,30.06,29.95,9,1,11,0.00
2013-6-16,86.8,76.2,63.9,74.0,67.9,62.0,96,77,57,30.02,29.89,10,3,14,0.00
2013-6-17,83.3,76.1,71.6,73.0,71.2,68.0,93,85,69,29.97,29.88,7,2,12,0.01
2013-6-18,77.5,72.5,65.9,74.0,70.1,64.0,95,92,87,29.92,29.69,19,3,22,0.76
2013-6-19,74.4,68.3,62.6,68.0,65.3,61.0,97,90,78,30.14,29.82,5,1,8,0.03
2013-6-20,76.3,67.4,57.2,64.0,56.9,52.0,97,73,44,30.26,30.14,9,2,11,0.00
2013-6-21,78.0,67.7,52.4,68.0,61.9,51.0,96,83,66,30.27,30.22,9,1,11,0.00
2013-6-22,82.8,73.3,61.6,68.0,64.4,60.0,96,75,51,30.23,30.15,12,2,15,0.00
2013-6-23,85.6,76.8,69.2,76.0,72.0,66.0,95,85,68,30.18,30.07,12,3,15,0.64
2013-6-24,89.2,80.0,73.3,77.0,73.3,69.0,93,80,62,30.13,30.01,10,2,15,0.00
2013-6-25,91.3,81.5,74.7,77.0,74.1,70.0,93,79,53,30.04,29.89,7,2,10,0.00
2013-6-26,91.9,79.9,72.2,78.0,73.8,69.0,94,82,59,29.92,29.80,7,2,40,0.49
2013-6-27,86.8,77.0,70.0,75.0,72.2,69.0,95,85,64,29.84,29.63,13,4,20,0.01
2013-6-28,89.2,80.0,73.9,77.0,73.4,69.0,94,81,60,29.64,29.49,12,4,20,0.00
2013-6-29,86.4,78.1,71.4,75.0,72.1,69.0,93,82,60,29.70,29.53,8,3,14,0.02
2013-6-30,84.4,79.4,76.0,76.0,74.3,73.0,92,84,76,29.85,29.70,11,5,17,0.00
2013-7-1,78.6,75.9,72.2,77.0,73.7,71.0,96,92,87,30.01,29.85,8,3,19,1.47
2013-7-2,85.8,76.2,71.7,76.0,72.7,70.0,97,89,70,30.19,30.01,9,3,17,0.67
2013-7-3,86.3,78.4,73.5,78.0,74.6,72.0,96,88,71,30.24,30.16,9,3,16,0.00
2013-7-4,87.5,80.1,74.6,76.0,74.4,73.0,94,83,63,30.28,30.17,11,4,13,0.00
2013-7-5,87.9,80.8,73.0,76.0,73.9,71.0,95,80,59,30.25,30.12,10,3,12,0.00
2013-7-6,89.3,81.3,76.2,78.0,74.9,72.0,91,81,62,30.20,30.08,10,3,13,0.00
2013-7-7,89.0,82.1,74.7,78.0,74.7,72.0,92,79,64,30.12,29.99,12,3,17,0.00
2013-7-8,86.3,78.6,74.8,77.0,74.0,72.0,93,86,67,30.11,30.04,9,2,12,0.02
2013-7-9,89.3,80.3,73.7,79.0,75.0,72.0,95,84,67,30.10,30.00,7,2,12,0.01
2013-7-10,88.3,81.1,74.9,80.0,76.2,73.0,95,85,71,29.99,29.88,9,2,13,0.19
2013-7-11,79.6,76.3,73.5,75.0,73.4,72.0,96,91,83,29.93,29.86,8,2,12,0.06
2013-7-12,77.9,74.0,71.1,73.0,71.8,70.0,96,93,84,30.00,29.86,8,2,11,0.38
2013-7-13,85.3,76.8,68.3,78.0,73.2,67.0,97,89,74,30.24,30.00,9,2,14,0.01
2013-7-14,86.7,80.0,73.0,77.0,74.1,72.0,97,83,63,30.31,30.25,7,1,10,0.00
2013-7-15,92.0,79.6,70.5,82.0,74.5,69.0,97,85,61,30.30,30.17,4,1,10,0.00
2013-7-16,91.1,83.0,75.2,79.0,75.4,72.0,97,79,54,30.19,30.12,8,2,14,0.00
2013-7-17,94.1,82.4,72.2,78.0,73.8,71.0,97,77,49,30.17,30.07,5,1,8,0.00
2013-7-18,94.0,83.7,72.9,80.0,75.8,71.0,97,79,50,30.11,29.99,7,1,8,0.00
2013-7-19,93.3,85.6,75.4,81.0,77.6,74.0,95,78,62,30.02,29.89,10,3,17,0.00
2013-7-20,92.1,87.9,82.9,80.0,77.8,76.0,80,72,64,29.90,29.82,12,4,15,0.00
2013-7-21,89.2,82.6,75.7,80.0,76.1,73.0,92,81,67,29.93,29.84,13,2,24,0.17
2013-7-23,89.1,83.3,74.6,78.0,74.9,73.0,94,77,62,29.70,29.62,5,1,10,0.00
2013-7-24,86.0,79.0,70.7,77.0,72.6,69.0,97,82,62,29.83,29.65,11,2,14,0.00
2013-7-25,78.0,73.2,67.3,73.0,67.6,64.0,94,82,78,29.99,29.82,14,4,17,0.00
2013-7-26,81.8,71.9,62.2,70.0,65.9,61.0,96,82,62,30.07,29.98,8,1,11,0.00
2013-7-27,83.7,74.3,66.6,71.0,67.8,65.0,97,81,61,30.05,29.93,8,2,13,0.00
2013-7-28,86.0,77.5,69.0,75.0,71.0,65.0,96,81,65,29.97,29.86,12,3,22,0.57
2013-7-29,81.9,74.2,66.0,72.0,66.9,60.0,96,80,52,30.13,29.95,10,2,15,0.00
2013-7-30,81.3,72.2,61.5,67.0,64.5,60.0,97,78,55,30.20,30.12,7,1,10,0.00
2013-7-31,81.3,72.2,62.9,72.0,66.8,62.0,97,84,60,30.14,30.02,11,2,13,0.00
2013-8-1,80.1,73.9,70.2,74.0,71.6,69.0,96,92,81,30.02,29.81,9,2,14,0.07
2013-8-2,85.7,76.5,68.6,75.0,69.4,64.0,96,80,51,29.95,29.84,7,1,11,0.01
2013-8-3,85.6,75.5,67.0,73.0,69.9,66.0,97,84,60,29.95,29.88,8,1,8,0.00
2013-8-4,80.7,73.5,63.2,69.0,63.2,57.0,95,73,46,30.01,29.86,14,4,22,0.00
2013-8-5,78.7,68.2,60.1,66.0,61.3,58.0,96,80,55,30.07,29.99,5,1,8,0.00
2013-8-6,71.7,68.6,65.4,68.0,66.2,64.0,96,92,86,30.07,30.00,12,3,18,0.58
2013-8-7,84.9,76.5,69.4,74.0,70.6,68.0,96,83,62,30.07,30.01,10,2,15,0.01
2013-8-8,86.7,79.3,74.2,77.0,73.8,71.0,92,83,63,30.05,29.98,9,3,14,0.00
2013-8-9,90.9,83.2,76.6,80.0,76.6,74.0,93,81,66,29.99,29.85,11,4,17,0.00
2013-8-10,86.1,78.7,71.7,77.0,73.7,71.0,96,85,64,30.07,29.93,6,1,12,0.02
2013-8-11,82.8,76.4,70.2,74.0,71.9,67.0,97,86,60,30.09,29.99,4,1,6,0.00
2013-8-12,86.5,78.5,72.1,77.0,74.4,71.0,97,87,70,30.00,29.90,7,1,9,0.00
2013-8-13,85.8,79.2,73.7,76.0,74.0,71.0,97,85,64,29.90,29.73,8,2,13,0.00
2013-8-14,74.9,69.0,58.8,73.0,59.1,50.0,95,72,53,30.08,29.75,16,6,21,0.01
2013-8-15,75.0,65.6,57.7,63.0,59.4,56.0,95,81,57,30.14,30.06,4,1,9,0.00
2013-8-16,76.1,66.7,54.5,65.0,59.4,53.0,97,79,53,30.17,30.10,5,1,8,0.00
2013-8-17,77.4,70.7,63.4,69.0,65.2,61.0,94,83,63,30.22,30.14,8,1,12,0.04
2013-8-18,69.8,68.3,67.1,68.0,66.9,66.0,96,95,93,30.18,30.11,10,3,16,0.29
2013-8-19,73.2,68.8,64.9,70.0,67.3,64.0,97,95,88,30.17,30.07,5,1,9,0.07
2013-8-20,83.5,74.3,68.2,73.0,70.2,67.0,97,87,67,30.16,30.07,6,1,8,0.00
2013-8-21,85.4,75.9,66.9,77.0,71.5,66.0,98,87,68,30.19,30.07,7,2,10,0.01
2013-8-22,87.8,78.2,71.4,77.0,72.7,69.0,97,84,58,30.10,29.92,8,1,11,0.02
2013-8-23,81.3,72.6,64.0,74.0,69.6,62.0,97,91,74,30.08,29.90,9,1,12,0.15
2013-8-24,81.0,71.0,61.6,70.0,64.2,60.0,97,81,51,30.30,30.07,8,1,13,0.00
2013-8-25,77.1,68.2,57.5,65.0,59.9,54.0,97,78,47,30.39,30.28,6,1,10,0.00
2013-8-26,83.1,68.8,53.9,67.0,61.1,53.0,97,78,53,30.30,30.03,8,1,13,0.00
2013-8-27,88.2,77.0,68.3,77.0,68.3,61.0,93,75,60,30.03,29.87,7,1,12,0.00
2013-8-28,83.6,76.8,72.7,75.0,72.9,71.0,95,87,70,29.91,29.82,6,1,9,0.08
2013-8-29,83.9,75.4,67.3,74.0,71.2,66.0,97,87,68,30.00,29.78,8,2,13,0.00
2013-8-30,83.0,72.4,62.7,72.0,67.8,62.0,97,86,67,30.04,29.91,7,2,11,0.01
2013-8-31,87.2,78.4,70.7,74.0,71.0,69.0,93,79,62,29.94,29.82,16,4,20,0.00
2013-9-1,90.1,79.9,73.3,79.0,73.8,71.0,94,82,62,29.85,29.75,7,2,14,0.00
2013-9-2,87.8,78.4,73.4,76.0,73.4,71.0,95,85,67,29.81,29.73,7,2,11,0.00
2013-9-3,84.5,76.8,67.7,74.0,70.7,66.0,96,82,59,29.91,29.73,9,2,15,0.00
2013-9-4,81.7,72.4,63.2,68.0,62.1,58.0,95,71,52,30.06,29.91,10,3,11,0.00
2013-9-5,85.6,73.0,60.7,70.0,63.6,59.0,97,76,42,30.07,29.97,9,1,13,0.00
2013-9-6,76.0,69.5,60.9,63.0,59.5,55.0,93,72,54,30.20,30.07,8,2,13,0.00
2013-9-7,79.5,67.0,55.0,64.0,59.8,54.0,97,80,55,30.12,29.94,8,1,9,0.00
2013-9-8,86.1,73.9,61.7,71.0,65.5,60.0,95,77,47,29.98,29.84,7,1,10,0.00
2013-9-9,78.6,73.6,68.5,71.0,67.2,61.0,95,81,72,30.15,29.98,5,1,9,0.00
2013-9-10,89.7,78.8,68.1,75.0,71.7,67.0,97,80,59,30.18,30.09,11,3,15,0.00
2013-9-11,91.0,80.0,70.7,74.0,71.6,68.0,94,77,54,30.15,30.03,9,2,13,0.00
2013-9-12,90.0,79.0,71.4,75.0,71.6,69.0,96,79,58,30.02,29.72,10,3,17,0.67
2013-9-13,77.3,71.9,63.8,71.0,64.2,55.0,97,78,50,29.87,29.68,11,4,27,0.00
2013-9-14,69.2,62.2,51.8,58.0,52.7,50.0,93,72,52,30.14,29.87,12,4,15,0.00
2013-9-15,75.3,62.5,48.5,62.0,54.0,47.0,97,76,50,30.23,30.10,8,1,10,0.00
2013-9-16,76.0,67.8,58.8,67.0,62.8,57.0,95,84,69,30.18,30.06,12,3,17,0.00
2013-9-17,66.3,59.7,51.3,57.0,54.1,49.0,97,83,58,30.37,30.18,13,2,17,0.00
2013-9-18,69.1,57.3,44.8,57.0,51.5,44.0,97,83,59,30.32,30.18,8,1,8,0.00
2013-9-19,74.1,61.3,48.2,59.0,53.7,47.0,97,79,52,30.19,30.09,7,1,11,0.00
2013-9-20,77.0,64.3,52.4,62.0,57.7,51.0,96,81,58,30.09,29.96,8,1,12,0.00
2013-9-21,79.7,67.8,55.8,68.0,62.4,55.0,97,84,58,29.98,29.71,14,3,18,0.41
2013-9-22,72.4,65.9,56.8,66.0,60.6,55.0,96,84,56,29.89,29.70,11,3,16,0.21
2013-9-23,63.6,56.8,47.8,55.0,50.8,46.0,95,82,59,30.06,29.90,11,2,17,0.01
2013-9-24,70.7,56.6,45.4,59.0,50.5,44.0,97,82,56,30.08,29.93,9,1,14,0.00
2013-9-25,73.7,60.1,47.3,61.0,53.8,46.0,97,82,52,29.95,29.86,4,0,9,0.01
2013-9-26,73.0,64.0,56.9,62.0,58.3,55.0,96,83,59,30.05,29.87,8,1,12,0.00
2013-9-27,71.0,61.9,54.1,60.0,55.5,53.0,97,82,57,30.20,30.04,8,2,14,0.00
2013-9-28,69.9,61.3,53.1,61.0,56.9,52.0,97,86,67,30.25,30.17,7,1,15,0.00
2013-9-29,71.9,62.2,52.9,63.0,57.1,52.0,97,85,58,30.17,30.03,10,2,12,0.00
2013-9-30,72.5,59.9,48.0,60.0,53.7,47.0,97,82,53,30.07,29.97,6,1,10,0.00
2013-10-1,79.5,64.6,50.5,67.0,57.8,49.0,97,81,50,30.07,29.96,6,1,10,0.00
2013-10-2,82.7,68.0,55.7,66.0,60.7,55.0,97,80,48,30.07,29.99,8,1,11,0.00
2013-10-3,83.8,69.3,57.6,70.0,63.0,57.0,97,82,49,30.09,30.03,6,1,9,0.00
2013-10-4,85.0,71.7,62.6,71.0,65.6,61.0,97,83,50,30.07,30.00,5,1,9,0.00
2013-10-5,87.1,73.3,61.7,71.0,66.3,61.0,97,81,51,30.07,29.99,6,0,8,0.00
2013-10-6,85.7,74.4,64.3,70.0,67.6,63.0,97,80,54,30.04,29.95,12,3,17,0.00
2013-10-7,83.0,72.5,62.4,72.0,68.2,56.0,96,86,65,30.00,29.80,16,5,26,0.54
2013-10-8,63.3,60.7,56.3,55.0,52.6,49.0,90,75,63,30.22,30.01,13,4,17,0.01
2013-10-9,62.8,61.0,59.0,59.0,57.2,53.0,95,87,74,30.21,30.07,15,5,22,0.83
2013-10-10,64.1,61.9,60.2,63.0,60.7,59.0,96,96,95,30.05,29.87,14,8,20,0.39
2013-10-11,67.2,64.6,61.3,66.0,63.5,60.0,97,96,95,29.90,29.82,10,5,14,0.16
2013-10-12,67.7,65.8,64.3,67.0,64.9,63.0,98,96,95,30.07,29.89,11,3,15,0.11
2013-10-13,66.7,65.2,63.2,66.0,63.7,61.0,98,94,91,30.25,30.05,10,2,14,0.13
2013-10-14,68.0,62.9,55.2,62.0,59.6,54.0,96,89,76,30.27,30.18,12,3,15,0.00
2013-10-15,65.0,61.7,53.4,62.0,59.2,53.0,97,91,84,30.20,30.05,8,2,12,0.01
2013-10-16,71.4,65.1,61.5,65.0,62.4,60.0,97,91,77,30.05,29.92,4,1,7,0.00
2013-10-17,76.0,68.4,60.7,67.0,64.2,60.0,97,87,71,29.92,29.77,8,2,12,0.00
2013-10-18,69.5,61.9,50.8,65.0,51.9,43.0,95,72,43,30.01,29.79,9,3,18,0.00
2013-10-19,65.3,59.1,50.2,63.0,57.4,49.0,96,94,88,29.99,29.79,6,1,10,0.03
2013-10-20,63.0,54.2,42.6,61.0,45.6,38.0,95,75,43,30.11,29.84,10,2,17,0.00
2013-10-21,65.4,50.9,38.1,50.0,44.7,37.0,97,82,43,30.17,29.99,8,1,13,0.01
2013-10-22,67.6,57.0,49.0,60.0,53.0,48.0,96,87,67,29.98,29.79,6,0,7,0.00
2013-10-23,58.0,53.9,47.9,55.0,47.2,40.0,96,78,63,29.91,29.63,11,3,14,0.00
2013-10-24,53.2,45.8,35.6,43.0,38.0,33.0,96,76,48,30.13,29.91,11,2,15,0.00
2013-10-25,54.5,42.3,32.4,39.0,34.3,31.0,96,77,42,30.32,30.13,10,2,19,0.00
2013-10-26,58.7,45.1,29.8,42.0,33.4,29.0,97,69,36,30.32,29.98,15,3,21,0.00
2013-10-27,62.1,50.3,37.9,46.0,40.4,36.0,94,72,42,30.13,29.96,8,1,12,0.00
2013-10-28,65.8,50.0,36.7,56.0,45.7,35.0,97,86,61,30.25,30.12,4,0,6,0.00
2013-10-29,65.4,52.9,43.3,52.0,46.9,42.0,97,82,52,30.34,30.25,5,0,8,0.00
2013-10-30,70.7,57.5,47.1,59.0,53.6,46.0,97,87,65,30.31,30.14,7,0,12,0.00
2013-10-31,71.2,63.0,51.4,65.0,58.6,50.0,97,86,73,30.18,29.87,11,3,14,0.00
2013-11-1,73.6,70.3,67.8,67.0,65.3,64.0,94,84,74,29.87,29.62,17,6,25,0.01
2013-11-2,70.2,63.7,56.8,66.0,54.2,43.0,96,73,46,29.87,29.61,22,2,22,0.00
2013-11-3,56.9,50.1,37.2,45.0,40.3,36.0,95,71,47,30.39,29.88,18,4,22,0.00
2013-11-4,48.8,42.0,35.7,38.0,34.7,30.0,95,76,58,30.58,30.39,11,2,14,0.00
2013-11-5,60.8,50.1,39.5,50.0,45.7,37.0,94,86,66,30.56,30.45,5,1,9,0.00
2013-11-6,66.7,57.3,46.4,57.0,52.3,45.0,97,84,62,30.45,30.10,11,2,15,0.00
2013-11-7,66.1,61.3,55.0,63.0,59.0,53.0,97,92,80,30.09,29.83,16,2,22,0.23